Time;durP1;ratioP1;P1;durP2;ratioP2;P2;SDS_P1;SDS_P2;PMS_P1;PMS_P2;Temp;Humidity;BMP_temperature;BMP_pressure;BME280_temperature;BME280_humidity;BME280_pressure;Samples;Min_cycle;Max_cycle;Signal;HPM_P1;HPM_P2
2022/10/24 00:00:48;;;;;;;;;;;19.60;99.90;;;;;;4992004;28;19918;-66
2022/10/24 00:03:15;;;;;;;;;;;19.60;99.90;;;;;;4991864;28;20008;-65
2022/10/24 00:05:43;;;;;;;;;;;19.50;99.90;;;;;;4990546;28;19982;-67
2022/10/24 00:08:10;;;;;;;;;;;19.50;99.90;;;;;;4985999;28;19926;-66
2022/10/24 00:10:37;;;;;;;;;;;19.40;99.90;;;;;;4986709;28;19915;-66
2022/10/24 00:13:03;;;;;;;;;;;19.30;99.90;;;;;;4971805;28;19936;-67
2022/10/24 00:15:30;;;;;;;;;;;19.30;99.90;;;;;;4971350;28;19910;-66
2022/10/24 00:17:56;;;;;;;;;;;19.30;99.90;;;;;;4972151;28;19910;-67
2022/10/24 00:20:23;;;;;;;;;;;19.30;99.90;;;;;;4971604;28;19920;-68
2022/10/24 00:22:50;;;;;;;;;;;19.30;99.90;;;;;;4971167;28;19972;-70
2022/10/24 00:25:16;;;;;;;;;;;19.30;99.90;;;;;;4971032;28;20723;-67
2022/10/24 00:27:43;;;;;;;;;;;19.30;99.90;;;;;;4971389;28;20655;-66
2022/10/24 00:30:10;;;;;;;;;;;19.40;99.90;;;;;;4971412;28;20367;-67
2022/10/24 00:32:36;;;;;;;;;;;19.40;99.90;;;;;;4971702;28;20382;-69
2022/10/24 00:35:04;;;;;;;;;;;19.50;99.90;;;;;;4972804;28;20412;-69
2022/10/24 00:37:30;;;;;;;;;;;19.50;99.90;;;;;;4972944;28;19924;-68
2022/10/24 00:39:57;;;;;;;;;;;19.50;99.90;;;;;;4972822;28;19960;-66
2022/10/24 00:42:24;;;;;;;;;;;19.50;99.90;;;;;;4972773;28;19914;-66
2022/10/24 00:44:52;;;;;;;;;;;19.60;99.90;;;;;;4972861;28;19966;-66
2022/10/24 00:47:19;;;;;;;;;;;19.60;99.90;;;;;;4972878;28;19918;-66
2022/10/24 00:49:49;;;;;;;;;;;19.50;99.90;;;;;;4973113;28;19911;-66
2022/10/24 00:52:17;;;;;;;;;;;19.50;99.90;;;;;;4972897;28;19918;-66
2022/10/24 00:54:45;;;;;;;;;;;19.50;99.90;;;;;;4972635;28;19910;-65
2022/10/24 00:57:15;;;;;;;;;;;19.50;99.90;;;;;;4972590;28;19915;-66
2022/10/24 00:59:43;;;;;;;;;;;19.60;99.90;;;;;;4972737;28;20362;-65
2022/10/24 01:02:10;;;;;;;;;;;19.70;99.90;;;;;;4972802;28;20278;-65
2022/10/24 01:04:36;;;;;;;;;;;19.80;99.90;;;;;;4972623;28;19942;-65
2022/10/24 01:07:29;;;;;;;;;;;19.80;99.90;;;;;;4972101;28;20447;-66
2022/10/24 01:09:55;;;;;;;;;;;19.90;99.90;;;;;;4986759;28;20009;-66
2022/10/24 01:12:22;;;;;;;;;;;19.80;99.90;;;;;;4972583;28;19921;-66
2022/10/24 01:14:55;;;;;;;;;;;19.80;99.90;;;;;;4972473;28;20382;-66
2022/10/24 01:17:24;;;;;;;;;;;19.60;99.90;;;;;;4972426;28;19964;-66
2022/10/24 01:20:09;;;;;;;;;;;19.60;99.90;;;;;;4972611;28;19914;-65
2022/10/24 01:22:35;;;;;;;;;;;19.50;99.90;;;;;;4972689;28;20393;-67
2022/10/24 01:25:05;;;;;;;;;;;19.60;99.90;;;;;;4972444;28;19921;-67
2022/10/24 01:27:52;;;;;;;;;;;19.60;99.90;;;;;;4972312;28;19922;-67
2022/10/24 01:30:19;;;;;;;;;;;19.70;99.90;;;;;;4972259;28;19918;-67
2022/10/24 01:33:06;;;;;;;;;;;19.70;99.90;;;;;;4972166;28;20260;-67
2022/10/24 01:35:42;;;;;;;;;;;19.70;99.90;;;;;;4972157;28;20325;-67
2022/10/24 01:38:08;;;;;;;;;;;19.80;99.90;;;;;;4972205;28;19933;-67
2022/10/24 01:40:49;;;;;;;;;;;19.90;99.90;;;;;;4972051;28;19957;-67
2022/10/24 01:43:18;;;;;;;;;;;20.00;99.90;;;;;;4972029;28;19910;-67
2022/10/24 01:45:48;;;;;;;;;;;20.00;99.90;;;;;;4971683;28;20286;-67
2022/10/24 01:48:16;;;;;;;;;;;20.20;99.90;;;;;;4971691;28;19911;-67
2022/10/24 01:50:44;;;;;;;;;;;20.20;99.90;;;;;;4971128;28;19955;-67
2022/10/24 01:53:12;;;;;;;;;;;20.20;99.90;;;;;;4971905;28;19910;-67
2022/10/24 01:55:39;;;;;;;;;;;20.30;99.90;;;;;;4971730;28;19910;-67
2022/10/24 01:58:08;;;;;;;;;;;20.40;99.90;;;;;;4971823;28;20006;-67
2022/10/24 02:00:35;;;;;;;;;;;20.40;99.90;;;;;;4971879;28;19945;-67
2022/10/24 02:03:05;;;;;;;;;;;20.60;99.90;;;;;;4971790;28;19911;-68
2022/10/24 02:05:35;;;;;;;;;;;20.80;99.90;;;;;;4971681;28;19918;-67
2022/10/24 02:08:05;;;;;;;;;;;21.00;99.90;;;;;;4971714;28;19921;-67
2022/10/24 02:10:44;;;;;;;;;;;21.10;99.90;;;;;;4971551;28;19915;-67
2022/10/24 02:13:14;;;;;;;;;;;21.30;99.90;;;;;;4971604;28;20359;-67
2022/10/24 02:15:44;;;;;;;;;;;21.50;99.90;;;;;;4971601;28;20098;-68
2022/10/24 02:18:11;;;;;;;;;;;21.60;99.90;;;;;;4971521;28;19911;-67
2022/10/24 02:20:52;;;;;;;;;;;21.70;99.90;;;;;;4971422;28;19936;-68
2022/10/24 02:23:22;;;;;;;;;;;21.70;99.90;;;;;;4971490;28;19949;-67
2022/10/24 02:25:51;;;;;;;;;;;21.90;99.90;;;;;;4971424;28;19918;-66
2022/10/24 02:28:22;;;;;;;;;;;22.00;99.90;;;;;;4971614;28;19910;-68
2022/10/24 02:30:55;;;;;;;;;;;22.10;99.90;;;;;;4971365;28;19910;-68
2022/10/24 02:33:22;;;;;;;;;;;22.30;99.90;;;;;;4971395;28;20334;-67
2022/10/24 02:35:51;;;;;;;;;;;22.30;99.90;;;;;;4971139;28;19910;-66
2022/10/24 02:38:23;;;;;;;;;;;22.40;99.90;;;;;;4971002;28;19910;-67
2022/10/24 02:40:51;;;;;;;;;;;22.40;99.90;;;;;;4971118;28;19910;-67
2022/10/24 02:43:18;;;;;;;;;;;22.10;99.90;;;;;;4971539;28;20318;-67
2022/10/24 02:45:45;;;;;;;;;;;21.80;99.90;;;;;;4971116;28;19924;-67
2022/10/24 02:48:15;;;;;;;;;;;21.80;99.90;;;;;;4971097;28;19910;-67
2022/10/24 02:50:42;;;;;;;;;;;21.90;99.90;;;;;;4971149;28;19911;-67
2022/10/24 02:53:12;;;;;;;;;;;22.00;99.90;;;;;;4971108;28;19917;-67
2022/10/24 02:55:38;;;;;;;;;;;22.20;99.90;;;;;;4970893;28;19910;-67
2022/10/24 02:58:05;;;;;;;;;;;22.40;99.90;;;;;;4970903;28;19918;-67
2022/10/24 03:00:32;;;;;;;;;;;22.40;99.90;;;;;;4971260;28;19916;-67
2022/10/24 03:02:58;;;;;;;;;;;22.30;99.90;;;;;;4973094;28;19911;-67
2022/10/24 03:05:25;;;;;;;;;;;22.40;99.90;;;;;;4974365;28;19917;-67
2022/10/24 03:07:52;;;;;;;;;;;22.30;99.90;;;;;;4974624;28;19960;-67
2022/10/24 03:10:18;;;;;;;;;;;22.40;99.90;;;;;;4974537;28;19914;-67
2022/10/24 03:12:45;;;;;;;;;;;22.40;99.90;;;;;;4974485;28;19956;-67
2022/10/24 03:15:12;;;;;;;;;;;22.40;99.90;;;;;;4974397;28;19910;-68
2022/10/24 03:17:38;;;;;;;;;;;22.40;99.90;;;;;;4974305;28;19941;-68
2022/10/24 03:20:05;;;;;;;;;;;22.40;99.90;;;;;;4974335;28;20000;-67
2022/10/24 03:22:32;;;;;;;;;;;22.40;99.90;;;;;;4974291;28;19914;-68
2022/10/24 03:25:01;;;;;;;;;;;22.40;99.90;;;;;;4974158;28;19910;-68
2022/10/24 03:27:29;;;;;;;;;;;22.50;99.90;;;;;;4974152;28;20293;-67
2022/10/24 03:29:56;;;;;;;;;;;22.70;99.90;;;;;;4973956;28;19917;-67
2022/10/24 03:32:22;;;;;;;;;;;22.80;99.90;;;;;;4974161;28;19915;-67
2022/10/24 03:34:49;;;;;;;;;;;22.90;99.90;;;;;;4956921;28;20279;-67
2022/10/24 03:37:15;;;;;;;;;;;22.80;99.90;;;;;;4973664;28;19918;-68
2022/10/24 03:39:42;;;;;;;;;;;22.70;99.90;;;;;;4973793;28;20058;-68
2022/10/24 03:42:09;;;;;;;;;;;22.70;99.90;;;;;;4974064;28;19955;-67
2022/10/24 03:44:35;;;;;;;;;;;22.70;99.90;;;;;;4973840;28;19922;-68
2022/10/24 03:47:02;;;;;;;;;;;22.80;99.90;;;;;;4974625;28;19922;-68
2022/10/24 03:49:29;;;;;;;;;;;22.80;99.90;;;;;;4973879;28;20384;-67
2022/10/24 03:51:55;;;;;;;;;;;22.80;99.90;;;;;;4973729;28;19914;-68
2022/10/24 03:54:22;;;;;;;;;;;22.80;99.90;;;;;;4973456;28;19917;-67
2022/10/24 03:56:49;;;;;;;;;;;22.60;99.90;;;;;;4973782;28;20260;-68
2022/10/24 03:59:15;;;;;;;;;;;22.40;99.90;;;;;;4967420;28;19911;-67
2022/10/24 04:01:42;;;;;;;;;;;22.10;99.90;;;;;;4982928;28;19925;-68
2022/10/24 04:04:09;;;;;;;;;;;22.00;99.90;;;;;;4992601;28;20009;-68
2022/10/24 04:06:35;;;;;;;;;;;21.90;99.90;;;;;;4992889;28;19971;-67
2022/10/24 04:09:02;;;;;;;;;;;21.80;99.90;;;;;;4992889;28;19914;-67
2022/10/24 04:11:29;;;;;;;;;;;21.90;99.90;;;;;;4992588;28;20286;-66
2022/10/24 04:13:56;;;;;;;;;;;21.90;99.90;;;;;;4992308;28;19910;-66
2022/10/24 04:16:23;;;;;;;;;;;22.00;99.90;;;;;;4991977;28;19910;-67
2022/10/24 04:18:50;;;;;;;;;;;22.00;99.90;;;;;;4983261;28;19910;-66
2022/10/24 04:21:17;;;;;;;;;;;22.00;99.90;;;;;;4984741;28;19930;-66
2022/10/24 04:23:43;;;;;;;;;;;22.00;99.90;;;;;;5064137;28;19916;-64
2022/10/24 04:26:11;;;;;;;;;;;21.90;99.90;;;;;;5093266;28;19916;-64
2022/10/24 04:28:38;;;;;;;;;;;21.80;99.90;;;;;;5016178;28;20286;-67
2022/10/24 04:31:05;;;;;;;;;;;21.70;99.90;;;;;;4992235;28;19910;-66
2022/10/24 04:33:32;;;;;;;;;;;21.60;99.90;;;;;;4991898;28;19921;-67
2022/10/24 04:35:58;;;;;;;;;;;21.50;99.90;;;;;;4991855;28;20065;-64
2022/10/24 04:38:25;;;;;;;;;;;21.40;99.90;;;;;;4985464;28;19966;-66
2022/10/24 04:40:52;;;;;;;;;;;21.30;99.90;;;;;;4985405;28;19967;-65
2022/10/24 04:43:20;;;;;;;;;;;21.20;99.90;;;;;;4991157;28;20108;-66
2022/10/24 04:45:47;;;;;;;;;;;21.20;99.90;;;;;;4990060;28;19929;-64
2022/10/24 04:48:14;;;;;;;;;;;21.20;99.90;;;;;;4984200;28;19918;-66
2022/10/24 04:50:41;;;;;;;;;;;21.20;99.90;;;;;;5033063;28;19913;-67
2022/10/24 04:53:08;;;;;;;;;;;21.20;99.90;;;;;;5033110;28;19919;-67
2022/10/24 04:55:35;;;;;;;;;;;21.20;99.90;;;;;;5015283;28;19914;-67
2022/10/24 04:58:02;;;;;;;;;;;21.20;99.90;;;;;;4987071;28;19928;-66
2022/10/24 05:00:29;;;;;;;;;;;21.20;99.90;;;;;;4989703;28;19921;-68
2022/10/24 05:02:56;;;;;;;;;;;21.20;99.90;;;;;;4982296;28;20023;-66
2022/10/24 05:05:22;;;;;;;;;;;21.30;99.90;;;;;;4969111;28;20646;-65
2022/10/24 05:07:49;;;;;;;;;;;21.50;99.90;;;;;;4983712;28;19959;-65
2022/10/24 05:10:16;;;;;;;;;;;21.60;99.90;;;;;;4981958;28;19916;-66
2022/10/24 05:12:43;;;;;;;;;;;21.90;99.90;;;;;;4984492;28;19920;-67
2022/10/24 05:15:10;;;;;;;;;;;22.20;99.90;;;;;;4983172;28;20377;-65
2022/10/24 05:17:36;;;;;;;;;;;22.30;99.90;;;;;;4980165;28;20282;-64
2022/10/24 05:20:03;;;;;;;;;;;22.30;99.90;;;;;;4981188;28;19921;-66
2022/10/24 05:22:30;;;;;;;;;;;22.50;99.90;;;;;;4982262;28;20263;-66
2022/10/24 05:24:56;;;;;;;;;;;22.60;99.90;;;;;;4971786;28;19921;-68
2022/10/24 05:27:26;;;;;;;;;;;23.00;99.90;;;;;;4982361;28;19922;-66
2022/10/24 05:29:53;;;;;;;;;;;23.40;99.90;;;;;;4983371;28;19917;-67
2022/10/24 05:32:21;;;;;;;;;;;23.30;99.90;;;;;;4984437;28;19917;-67
2022/10/24 05:34:47;;;;;;;;;;;23.50;99.90;;;;;;4981075;28;19914;-67
2022/10/24 05:37:14;;;;;;;;;;;23.20;99.90;;;;;;4986825;28;19922;-67
2022/10/24 05:39:41;;;;;;;;;;;22.90;99.90;;;;;;4981587;28;19914;-67
2022/10/24 05:42:09;;;;;;;;;;;22.70;99.90;;;;;;4973832;28;19992;-67
2022/10/24 05:44:37;;;;;;;;;;;22.70;99.90;;;;;;4981698;28;19949;-65
2022/10/24 05:47:03;;;;;;;;;;;22.50;99.90;;;;;;4983051;28;19963;-65
2022/10/24 05:49:30;;;;;;;;;;;22.30;99.90;;;;;;4981079;28;19921;-67
2022/10/24 05:51:56;;;;;;;;;;;22.30;99.90;;;;;;4969100;28;19914;-67
2022/10/24 05:54:23;;;;;;;;;;;22.10;99.90;;;;;;4975369;28;19914;-68
2022/10/24 05:56:50;;;;;;;;;;;22.20;99.90;;;;;;4980783;28;20324;-67
2022/10/24 05:59:16;;;;;;;;;;;22.30;99.90;;;;;;4983269;28;20418;-68
2022/10/24 06:01:43;;;;;;;;;;;22.50;99.90;;;;;;4969593;28;19911;-66
2022/10/24 06:04:10;;;;;;;;;;;22.70;99.90;;;;;;4981512;28;20596;-65
2022/10/24 06:06:40;;;;;;;;;;;22.80;99.90;;;;;;4981504;28;19918;-67
2022/10/24 06:09:07;;;;;;;;;;;23.10;99.90;;;;;;4977395;28;19953;-67
2022/10/24 06:11:34;;;;;;;;;;;23.50;99.90;;;;;;4971882;28;19937;-68
2022/10/24 06:14:01;;;;;;;;;;;23.80;99.90;;;;;;4971132;28;19922;-67
2022/10/24 06:16:29;;;;;;;;;;;24.40;99.90;;;;;;4982764;28;19906;-66
2022/10/24 06:18:56;;;;;;;;;;;25.60;99.90;;;;;;4995706;28;19964;-66
2022/10/24 06:21:23;;;;;;;;;;;26.40;99.90;;;;;;4976751;28;19910;-66
2022/10/24 06:23:50;;;;;;;;;;;26.50;99.90;;;;;;4964839;28;19922;-68
2022/10/24 06:26:17;;;;;;;;;;;26.50;99.90;;;;;;4963308;28;19983;-67
2022/10/24 06:28:44;;;;;;;;;;;26.20;99.90;;;;;;4997577;28;19910;-68
2022/10/24 06:31:11;;;;;;;;;;;25.70;99.90;;;;;;4976329;28;20040;-68
2022/10/24 06:33:38;;;;;;;;;;;25.00;99.90;;;;;;4972516;28;20070;-67
2022/10/24 06:36:08;;;;;;;;;;;24.60;99.90;;;;;;4979911;28;19910;-66
2022/10/24 06:38:35;;;;;;;;;;;24.20;99.90;;;;;;4982148;28;19914;-68
2022/10/24 06:41:09;;;;;;;;;;;23.80;99.90;;;;;;4974235;28;19910;-66
2022/10/24 06:43:36;;;;;;;;;;;23.50;99.90;;;;;;4963120;28;20060;-68
2022/10/24 06:46:07;;;;;;;;;;;23.30;99.90;;;;;;4980114;28;19922;-67
2022/10/24 06:48:34;;;;;;;;;;;23.10;99.90;;;;;;4968116;28;20009;-68
2022/10/24 06:51:01;;;;;;;;;;;23.00;99.90;;;;;;4960873;28;19910;-67
2022/10/24 06:53:28;;;;;;;;;;;22.90;99.90;;;;;;4972774;28;19914;-68
2022/10/24 06:55:54;;;;;;;;;;;22.60;99.90;;;;;;4981316;28;19917;-68
2022/10/24 06:58:21;;;;;;;;;;;22.60;99.90;;;;;;4982731;28;19910;-67
2022/10/24 07:00:48;;;;;;;;;;;22.50;99.90;;;;;;4978679;28;19933;-68
2022/10/24 07:03:15;;;;;;;;;;;22.30;99.90;;;;;;4961139;28;20008;-68
2022/10/24 07:05:41;;;;;;;;;;;22.20;99.90;;;;;;4979018;28;20602;-67
2022/10/24 07:08:09;;;;;;;;;;;22.10;99.90;;;;;;4980938;28;20324;-66
2022/10/24 07:10:36;;;;;;;;;;;22.00;99.90;;;;;;4981790;28;19914;-66
2022/10/24 07:13:03;;;;;;;;;;;21.90;99.90;;;;;;4979524;28;19929;-68
2022/10/24 07:15:29;;;;;;;;;;;21.70;99.90;;;;;;4966475;28;19914;-66
2022/10/24 07:17:56;;;;;;;;;;;21.70;99.90;;;;;;4961956;28;19910;-68
2022/10/24 07:20:23;;;;;;;;;;;21.60;99.90;;;;;;4963014;28;20367;-66
2022/10/24 07:22:51;;;;;;;;;;;21.50;99.90;;;;;;4965785;28;20481;-66
2022/10/24 07:25:17;;;;;;;;;;;21.40;99.90;;;;;;4946932;28;19914;-66
2022/10/24 07:27:44;;;;;;;;;;;21.20;99.90;;;;;;4961598;28;19922;-67
2022/10/24 07:30:20;;;;;;;;;;;21.10;99.90;;;;;;4959782;28;19957;-66
2022/10/24 07:32:47;;;;;;;;;;;20.90;99.90;;;;;;4962338;28;19910;-68
2022/10/24 07:35:14;;;;;;;;;;;20.80;99.90;;;;;;4968484;28;19910;-66
2022/10/24 07:37:40;;;;;;;;;;;20.70;99.90;;;;;;4982010;28;20063;-67
2022/10/24 07:40:07;;;;;;;;;;;20.60;99.90;;;;;;4985391;28;19971;-66
2022/10/24 07:42:34;;;;;;;;;;;20.60;99.90;;;;;;4989726;28;19955;-65
2022/10/24 07:45:02;;;;;;;;;;;20.50;99.90;;;;;;4984637;28;19922;-68
2022/10/24 07:47:28;;;;;;;;;;;20.50;99.90;;;;;;4988732;28;19953;-64
2022/10/24 07:49:55;;;;;;;;;;;20.40;99.90;;;;;;4992365;28;19910;-67
2022/10/24 07:52:22;;;;;;;;;;;20.30;99.90;;;;;;4992942;28;19921;-68
2022/10/24 07:54:49;;;;;;;;;;;20.30;99.90;;;;;;4992558;28;19997;-66
2022/10/24 07:57:16;;;;;;;;;;;20.20;99.90;;;;;;4992700;28;19914;-66
2022/10/24 07:59:42;;;;;;;;;;;20.20;99.90;;;;;;4980365;28;19973;-66
2022/10/24 08:02:13;;;;;;;;;;;20.10;99.90;;;;;;4973521;28;19921;-65
2022/10/24 08:04:40;;;;;;;;;;;20.00;99.90;;;;;;4982827;28;19909;-67
2022/10/24 08:07:11;;;;;;;;;;;20.00;99.90;;;;;;4992398;28;19963;-64
2022/10/24 08:09:39;;;;;;;;;;;19.90;99.90;;;;;;4992533;28;20431;-65
2022/10/24 08:12:06;;;;;;;;;;;19.90;99.90;;;;;;4969681;28;20473;-67
2022/10/24 08:14:32;;;;;;;;;;;19.80;99.90;;;;;;4991151;28;20374;-66
2022/10/24 08:16:59;;;;;;;;;;;19.70;99.90;;;;;;4992488;28;20359;-66
2022/10/24 08:19:25;;;;;;;;;;;19.80;99.90;;;;;;4990107;28;19914;-65
2022/10/24 08:21:52;;;;;;;;;;;19.70;99.90;;;;;;4992492;28;20336;-67
2022/10/24 08:24:22;;;;;;;;;;;19.70;99.90;;;;;;4991403;28;20217;-66
2022/10/24 08:26:49;;;;;;;;;;;19.70;99.90;;;;;;4991878;28;19918;-66
2022/10/24 08:29:21;;;;;;;;;;;19.70;99.90;;;;;;4992125;28;19910;-66
2022/10/24 08:31:54;;;;;;;;;;;19.70;99.90;;;;;;4991806;28;20467;-66
2022/10/24 08:34:22;;;;;;;;;;;19.70;99.90;;;;;;4991771;28;19910;-66
2022/10/24 08:36:49;;;;;;;;;;;19.60;99.90;;;;;;4991890;28;19914;-66
2022/10/24 08:39:16;;;;;;;;;;;19.60;99.90;;;;;;4989252;28;19910;-67
2022/10/24 08:42:02;;;;;;;;;;;19.60;99.90;;;;;;4971945;28;19921;-67
2022/10/24 08:44:35;;;;;;;;;;;19.60;99.90;;;;;;4985661;28;19928;-66
2022/10/24 08:47:08;;;;;;;;;;;19.60;99.90;;;;;;4987346;28;19982;-66
2022/10/24 08:49:41;;;;;;;;;;;19.60;99.90;;;;;;4991565;28;19910;-67
2022/10/24 08:52:10;;;;;;;;;;;19.60;99.90;;;;;;4991936;28;19914;-67
2022/10/24 08:54:39;;;;;;;;;;;19.60;99.90;;;;;;4992014;28;19910;-67
2022/10/24 08:57:05;;;;;;;;;;;19.50;99.90;;;;;;4992006;28;20312;-67
2022/10/24 08:59:33;;;;;;;;;;;19.50;99.90;;;;;;4991873;28;20265;-67
2022/10/24 09:02:03;;;;;;;;;;;19.60;99.90;;;;;;4991914;28;20354;-66
2022/10/24 09:04:34;;;;;;;;;;;19.50;99.90;;;;;;4991289;28;19922;-67
2022/10/24 09:07:01;;;;;;;;;;;19.50;99.90;;;;;;4982084;28;19922;-67
2022/10/24 09:09:38;;;;;;;;;;;19.50;99.90;;;;;;4990054;28;19910;-68
2022/10/24 09:12:12;;;;;;;;;;;19.50;99.90;;;;;;4984125;28;19918;-67
2022/10/24 09:14:41;;;;;;;;;;;19.50;99.90;;;;;;4989593;28;19967;-66
2022/10/24 09:17:22;;;;;;;;;;;19.60;99.90;;;;;;4990380;28;20407;-66
2022/10/24 09:19:51;;;;;;;;;;;19.60;99.90;;;;;;4986316;28;19913;-66
2022/10/24 09:22:18;;;;;;;;;;;19.60;99.90;;;;;;4988294;28;19952;-67
2022/10/24 09:24:48;;;;;;;;;;;19.60;99.90;;;;;;4984912;28;20017;-67
2022/10/24 09:27:20;;;;;;;;;;;19.60;99.90;;;;;;4971427;28;20365;-67
2022/10/24 09:29:46;;;;;;;;;;;19.60;99.90;;;;;;4974586;28;19917;-65
2022/10/24 09:32:25;;;;;;;;;;;19.60;99.90;;;;;;4988447;28;19917;-67
2022/10/24 09:34:52;;;;;;;;;;;19.50;99.90;;;;;;4991511;28;20362;-67
2022/10/24 09:37:33;;;;;;;;;;;19.50;99.90;;;;;;4988362;28;19918;-66
2022/10/24 09:40:18;;;;;;;;;;;19.50;99.90;;;;;;4985530;28;20294;-65
2022/10/24 09:42:56;;;;;;;;;;;19.40;99.90;;;;;;4982170;28;20386;-65
2022/10/24 09:45:36;;;;;;;;;;;19.50;99.90;;;;;;4966169;28;19922;-67
2022/10/24 09:48:15;;;;;;;;;;;19.40;99.90;;;;;;4985354;28;19957;-67
2022/10/24 09:50:42;;;;;;;;;;;19.40;99.90;;;;;;4982705;28;19929;-68
2022/10/24 09:53:30;;;;;;;;;;;19.40;99.90;;;;;;4984606;28;20380;-67
2022/10/24 09:55:58;;;;;;;;;;;19.40;99.90;;;;;;4985664;28;19929;-66
2022/10/24 09:58:31;;;;;;;;;;;19.30;99.90;;;;;;4970778;28;19914;-68
2022/10/24 10:01:18;;;;;;;;;;;19.30;99.90;;;;;;4969809;28;19949;-67
2022/10/24 10:04:04;;;;;;;;;;;19.30;99.90;;;;;;4970572;28;20390;-66
2022/10/24 10:06:32;;;;;;;;;;;19.30;99.90;;;;;;4967222;28;19918;-67
2022/10/24 10:08:59;;;;;;;;;;;19.30;99.90;;;;;;4967381;28;20010;-68
2022/10/24 10:11:25;;;;;;;;;;;19.30;99.90;;;;;;4974037;28;19918;-66
2022/10/24 10:13:54;;;;;;;;;;;19.30;99.90;;;;;;4972428;28;19914;-69
2022/10/24 10:16:26;;;;;;;;;;;19.30;99.90;;;;;;4970104;28;20001;-67
2022/10/24 10:19:04;;;;;;;;;;;19.30;99.90;;;;;;4971102;28;19910;-67
2022/10/24 10:21:50;;;;;;;;;;;19.30;99.90;;;;;;4976235;28;19914;-67
2022/10/24 10:24:42;;;;;;;;;;;19.30;99.90;;;;;;4980339;28;19924;-67
2022/10/24 10:27:26;;;;;;;;;;;19.30;99.90;;;;;;4965856;28;19928;-67
2022/10/24 10:30:14;;;;;;;;;;;19.20;99.90;;;;;;4953558;28;19952;-67
2022/10/24 10:32:47;;;;;;;;;;;19.20;99.90;;;;;;4954207;28;19918;-67
2022/10/24 10:35:20;;;;;;;;;;;19.20;99.90;;;;;;4971407;28;20383;-67
2022/10/24 10:38:09;;;;;;;;;;;19.20;99.90;;;;;;4971084;28;19997;-67
2022/10/24 10:40:59;;;;;;;;;;;19.20;99.90;;;;;;5006907;28;19914;-67
2022/10/24 10:43:25;;;;;;;;;;;19.20;99.90;;;;;;4967291;28;20015;-67
2022/10/24 10:46:04;;;;;;;;;;;19.20;99.90;;;;;;4989869;28;19933;-67
2022/10/24 10:49:09;;;;;;;;;;;19.20;99.90;;;;;;4990370;28;19998;-67
2022/10/24 10:51:42;;;;;;;;;;;19.30;99.90;;;;;;4948884;28;19910;-67
2022/10/24 10:54:08;;;;;;;;;;;19.30;99.90;;;;;;4948560;28;19997;-66
2022/10/24 10:56:38;;;;;;;;;;;19.30;99.90;;;;;;4970416;28;20335;-66
2022/10/24 10:59:04;;;;;;;;;;;19.30;99.90;;;;;;4989802;28;19997;-67
2022/10/24 11:02:00;;;;;;;;;;;19.30;99.90;;;;;;4990089;28;20301;-67
2022/10/24 11:04:36;;;;;;;;;;;19.30;99.90;;;;;;4953777;28;19915;-67
2022/10/24 11:07:26;;;;;;;;;;;19.30;99.90;;;;;;4965863;28;20008;-67
2022/10/24 11:09:56;;;;;;;;;;;19.30;99.90;;;;;;4984349;28;19910;-67
2022/10/24 11:12:25;;;;;;;;;;;19.30;99.90;;;;;;4990291;28;20411;-66
2022/10/24 11:14:57;;;;;;;;;;;19.30;99.90;;;;;;4983919;28;19993;-67
2022/10/24 11:17:39;;;;;;;;;;;19.30;99.90;;;;;;4987018;28;19963;-66
2022/10/24 11:20:20;;;;;;;;;;;19.30;99.90;;;;;;4989971;28;19917;-67
2022/10/24 11:22:50;;;;;;;;;;;19.40;99.90;;;;;;4983726;28;20429;-67
2022/10/24 11:25:23;;;;;;;;;;;19.40;99.90;;;;;;4990329;28;19910;-66
2022/10/24 11:27:52;;;;;;;;;;;19.40;99.90;;;;;;4989884;28;19925;-66
2022/10/24 11:30:30;;;;;;;;;;;19.30;99.90;;;;;;4986668;28;19920;-66
2022/10/24 11:33:02;;;;;;;;;;;19.40;99.90;;;;;;4993280;28;20042;-67
2022/10/24 11:35:31;;;;;;;;;;;19.30;99.90;;;;;;4969161;28;19922;-66
2022/10/24 11:38:16;;;;;;;;;;;19.30;99.90;;;;;;4973719;28;19918;-67
2022/10/24 11:40:45;;;;;;;;;;;19.20;99.90;;;;;;4973866;28;19946;-67
2022/10/24 11:43:12;;;;;;;;;;;19.30;99.90;;;;;;4967460;28;19914;-67
2022/10/24 11:45:43;;;;;;;;;;;19.30;99.90;;;;;;4973554;28;20397;-66
2022/10/24 11:48:20;;;;;;;;;;;19.20;99.90;;;;;;4978220;28;20671;-68
2022/10/24 11:50:55;;;;;;;;;;;19.20;99.90;;;;;;4986612;28;19971;-67
2022/10/24 11:53:24;;;;;;;;;;;19.30;99.90;;;;;;4993176;28;19914;-67
2022/10/24 11:56:12;;;;;;;;;;;19.30;99.90;;;;;;4993235;28;19933;-66
2022/10/24 11:58:49;;;;;;;;;;;19.30;99.90;;;;;;4993301;28;20388;-67
2022/10/24 12:01:16;;;;;;;;;;;19.20;99.90;;;;;;4993130;28;19910;-67
2022/10/24 12:04:01;;;;;;;;;;;19.20;99.90;;;;;;4973602;28;19961;-67
2022/10/24 12:06:36;;;;;;;;;;;19.20;99.90;;;;;;4973767;28;19961;-65
2022/10/24 12:09:09;;;;;;;;;;;19.30;99.90;;;;;;4967093;28;19910;-68
2022/10/24 12:11:55;;;;;;;;;;;19.20;99.90;;;;;;4973586;28;20436;-67
2022/10/24 12:14:39;;;;;;;;;;;19.20;99.90;;;;;;4973524;28;19957;-66
2022/10/24 12:17:27;;;;;;;;;;;19.20;99.90;;;;;;4967696;28;19964;-68
2022/10/24 12:19:54;;;;;;;;;;;19.20;99.90;;;;;;4956263;28;19957;-66
2022/10/24 12:22:26;;;;;;;;;;;19.20;99.90;;;;;;4972946;28;19922;-66
2022/10/24 12:25:06;;;;;;;;;;;19.10;99.90;;;;;;4973215;28;19923;-65
2022/10/24 12:27:34;;;;;;;;;;;19.10;99.90;;;;;;4969882;28;20275;-68
2022/10/24 12:30:03;;;;;;;;;;;19.00;99.90;;;;;;4974295;28;19937;-68
2022/10/24 12:32:38;;;;;;;;;;;19.00;99.90;;;;;;4973258;28;19910;-66
2022/10/24 12:35:24;;;;;;;;;;;19.00;99.90;;;;;;4972617;28;19932;-66
2022/10/24 12:37:51;;;;;;;;;;;19.00;99.90;;;;;;4973044;28;19910;-66
2022/10/24 12:40:36;;;;;;;;;;;19.00;99.90;;;;;;4973228;28;20322;-66
2022/10/24 12:43:11;;;;;;;;;;;19.00;99.90;;;;;;4972791;28;20001;-68
2022/10/24 12:45:38;;;;;;;;;;;19.00;99.90;;;;;;4972670;28;19926;-68
2022/10/24 12:48:14;;;;;;;;;;;19.00;99.90;;;;;;4966591;28;20396;-67
2022/10/24 12:50:40;;;;;;;;;;;19.00;99.90;;;;;;4972827;28;19921;-67
2022/10/24 12:53:39;;;;;;;;;;;19.00;99.90;;;;;;4972914;28;19917;-66
2022/10/24 12:56:08;;;;;;;;;;;19.00;99.90;;;;;;4988320;28;20325;-66
2022/10/24 12:58:36;;;;;;;;;;;19.00;99.90;;;;;;4967932;28;19993;-69
2022/10/24 13:01:08;;;;;;;;;;;19.00;99.90;;;;;;4971304;28;19946;-67
2022/10/24 13:03:53;;;;;;;;;;;19.00;99.90;;;;;;4972784;28;19934;-67
2022/10/24 13:06:26;;;;;;;;;;;19.00;99.90;;;;;;4955353;28;19968;-67
2022/10/24 13:09:07;;;;;;;;;;;19.10;99.90;;;;;;4969498;28;19925;-68
2022/10/24 13:11:47;;;;;;;;;;;19.00;99.90;;;;;;4971105;28;19918;-67
2022/10/24 13:14:32;;;;;;;;;;;19.00;99.90;;;;;;4972747;28;19911;-67
2022/10/24 13:17:20;;;;;;;;;;;19.00;99.90;;;;;;4972610;28;20066;-66
2022/10/24 13:20:00;;;;;;;;;;;19.10;99.90;;;;;;4972334;28;20428;-67
2022/10/24 13:22:28;;;;;;;;;;;19.00;99.90;;;;;;4972385;28;19918;-67
2022/10/24 13:24:55;;;;;;;;;;;19.00;99.90;;;;;;4972433;28;19914;-66
2022/10/24 13:27:26;;;;;;;;;;;18.90;99.90;;;;;;5064917;28;20064;-68
2022/10/24 13:29:53;;;;;;;;;;;19.00;99.90;;;;;;5093842;28;20303;-68
2022/10/24 13:32:20;;;;;;;;;;;18.90;99.90;;;;;;5029872;28;19953;-67
2022/10/24 13:34:53;;;;;;;;;;;18.90;99.90;;;;;;4972339;28;19960;-67
2022/10/24 13:37:38;;;;;;;;;;;18.90;99.90;;;;;;4972540;28;20353;-66
2022/10/24 13:40:10;;;;;;;;;;;18.90;99.90;;;;;;4971995;28;20020;-68
2022/10/24 13:42:40;;;;;;;;;;;18.90;99.90;;;;;;4972168;28;19917;-68
2022/10/24 13:45:27;;;;;;;;;;;18.90;99.90;;;;;;4971434;28;19927;-66
2022/10/24 13:48:01;;;;;;;;;;;18.90;99.90;;;;;;4971402;28;19922;-67
2022/10/24 13:50:29;;;;;;;;;;;19.00;99.90;;;;;;4971911;28;19910;-66
2022/10/24 13:53:01;;;;;;;;;;;19.00;99.90;;;;;;4965790;28;20381;-67
2022/10/24 13:55:31;;;;;;;;;;;18.90;99.90;;;;;;4987662;28;19918;-68
2022/10/24 13:58:09;;;;;;;;;;;19.00;99.90;;;;;;4991034;28;19921;-67
2022/10/24 14:00:38;;;;;;;;;;;18.90;99.90;;;;;;4991663;28;20033;-67
2022/10/24 14:03:15;;;;;;;;;;;18.90;99.90;;;;;;4991588;28;19982;-67
2022/10/24 14:05:45;;;;;;;;;;;18.90;99.90;;;;;;4990828;28;20355;-67
2022/10/24 14:08:19;;;;;;;;;;;18.80;99.90;;;;;;4991326;28;19917;-67
2022/10/24 14:10:46;;;;;;;;;;;18.80;99.90;;;;;;4991376;28;20365;-67
2022/10/24 14:13:15;;;;;;;;;;;18.70;99.90;;;;;;4991270;28;19910;-67
2022/10/24 14:15:53;;;;;;;;;;;18.70;99.90;;;;;;4991119;28;19914;-66
2022/10/24 14:18:20;;;;;;;;;;;18.70;99.90;;;;;;4990726;28;19956;-66
2022/10/24 14:20:54;;;;;;;;;;;18.60;99.90;;;;;;4990925;28;19910;-67
2022/10/24 14:23:25;;;;;;;;;;;18.50;99.90;;;;;;4990361;28;19914;-67
2022/10/24 14:26:00;;;;;;;;;;;18.60;99.90;;;;;;4984143;28;19937;-67
2022/10/24 14:28:29;;;;;;;;;;;18.50;99.90;;;;;;4990712;28;19922;-67
2022/10/24 14:31:03;;;;;;;;;;;18.60;99.90;;;;;;4991031;28;20282;-66
2022/10/24 14:33:31;;;;;;;;;;;18.70;99.90;;;;;;4990800;28;20004;-67
2022/10/24 14:35:59;;;;;;;;;;;18.70;99.90;;;;;;4990692;28;20370;-66